Rick Husband Amarillo International Airport
KAMA : now visible

Airfield :











YOU CAN JOIN US ON...

 
LOGIN :

Register | Disclaimer

   EN    FR    IT 

 









Legend :    VFR   Marginal VFR   IFR   Intensive IFR   Very Intensive IFR
Visi :
Ceiling :
>= 8 km
>= 3000ft
5 to 8 km
1000 to 3000 ft
1500m to 5 km
500 to 1000 ft
800 to 1500m
200 to 500 ft
< 800m
< 200 ft
Symbols :   Thunderstorms  Fog  Heavy snow  Heavy precipitations  Wind > 20 kt







- Airport Elevation : 3607 ft
- IATA code : AMA


KAMA - Rick Husband Amarillo International

CURRENT METAR :
  • 201953Z AUTO 16011KT 10SM SCT120 22/18 A2996 RMK AO2 SLP104 T02220183

EXPIRED METARs :
  • 201853Z 16012KT 10SM CLR 22/19 A3000 RMK AO2 RAE31 SLP117 P0001 T02170189
  • 201753Z 16010KT 10SM -RA FEW075 OVC110 22/18 A3001 RMK AO2 RAB31 SLP122 P0000 60025 T02170183 10233 20167 55005

TAF KAMA
Valid from the 20 at 18:00 until the 21 at 18:00 UTC


201720Z 2018/2118 15015KT P6SM BKN090
TEMPO 2018/2022 4SM TSRA BR OVC020CB
FM202200 15014KT P6SM BKN090
TEMPO 2022/2102 4SM TSRA BR OVC020CB
FM210200 16010KT P6SM OVC015
TEMPO 2111/2115 P6SM OVC007
No reported NOTAMs for that airfield.



MET'MAP, your aeronautical weather chart ! - Copyright ORBIFLY December 2007 - Disclaimer

ORBIFLY MET'MAP TEAM :

Programming & Development : Alexandra Zaïnal
Concept & Development : Baudouin d'Aumeries
Co-Development & Prog : Marc-Olivier Méhu
Technical & hardware support : Manuel Goepfert

Contact : metmap@orbifly.com




SOURCES & CREDITS :

   NOAA       Earth
Advisory